EA1HWD
43.28.96N 005.26.30W
IN73GL aprs.fi
zuletzt gehoert:
2021-11-30T14:31:20Z
zuerst gehoert:
2020-02-10T15:02:48Z

APRS IN73GL, 0 Stunde(n), EA1HWD [16:17:32, 0s].
EA1FHR 43.28.72N 005.26.41WIN73GL 0.419km 310°NW14:31:11ZMMDVM MMDVM HS Hat 439.1500/439.1500 CC1
EA1HWD 43.28.96N 005.26.30WIN73GL 0.730km 347°NNW14:31:20Z144.575FM Local frecuency VHF. 434.2500/434.2500 CC1
EB1GEM 43.30.00N 005.36.07WIN73EM 13.559km 281°W15:13:27ZWX3in1Plus2.0 U=13.3V,T=??.?C/??.?F(3EB1GEM-3)
EA1JBU 43.30.80N 005.16.20WIN73IM 14.021km 73°ENE15:00:37ZEA1JBU(3EA1JBU-2)
EA1JBE 43.30.90N 005.16.15WIN73IM 14.153km 72°ENE15:15:07ZEA1JBU(3EA1JBE-13)
MAIN QTH http://qrz.com/db/ea1jbe(2EA1JBE-1)
EA1FLQ 43.22.00N 005.36.35WIN73EI 18.335km 228°SW15:01:21ZMMDVM DVMega 439.9750/439.9750 CC1
ED1ZAS 43.27.52N 005.40.17WIN73DL 18.927km 264°W15:02:38ZRD985 438.2250/430.6250 CC1
EA1DZR 43.31.48N 005.40.00WIN73EM 19.339km 286°WNW15:01:43ZMMDVM DVS 434.3500/434.3500 CC1
ED1ZAE 43.27.97N 005.40.54WIN73DL 19.355km 267°W15:11:19Z400 M. PICO SAN MARTIN (GIJON) 13.4V,17.5C(3ED1ZAE-3)
2m Voice 145.5875 -0.600 Mhz(2ED1ZAE-C)
EA1FFA 43.31.53N 005.40.64WIN73DM 20.196km 286°WNW14:31:53ZMMDVM MMDVM HS Hat 438.8000/438.8000 CC1
LEEL 43.32.98N 005.41.71WIN73DN 22.420km 291°WNW15:00:29ZHelipuerto de El Musel: LEAS 301400Z 30003KT 250V030 9999 FEW038 SCT045 14/07 Q1026 NOSIG=
EB1TK 43.32.22N 005.42.32WIN73DM 22.723km 287°WNW15:15:32ZWind 298°/002kn, Böen bis 004kn, Temp 15.00c, Regen 0.0mm, letzte 24h 1.8mm, seit 0h 1.8mm, Baro 1028.1h, Hum: 67%(3EB1TK-13)
EB1AD 43.32.80N 005.43.28WIN73DN 24.276km 289°WNW15:17:09ZCarlos(3EB1AD-9)
EA1ABW 43.24.77N 005.47.77WIN73CJ 29.898km 257°WSW15:01:18ZMMDVM MMDVM HS Hat 439.8250/439.8250 CC1
ED1ZBF 43.19.16N 005.06.74WIN73KH 31.434km 124°SE15:02:35ZRD625 438.4750/430.8750 CC1
LEMR 43.25.83N 005.49.60WIN73CK 31.924km 261°W15:00:29ZAerodromo de la Morgal: LEAS 301400Z 30003KT 250V030 9999 FEW038 SCT045 14/07 Q1026 NOSIG=
LEGM 43.26.15N 005.49.84WIN73CK 32.138km 262°W15:00:15ZHelipuerto de La Morgal: LEAS 301400Z 30003KT 250V030 9999 FEW038 SCT045 14/07 Q1026 NOSIG=
LEHU 43.22.63N 005.49.57WIN73CJ 33.362km 251°WSW15:00:15ZHelipuerto del HUCA: LEAS 301400Z 30003KT 250V030 9999 FEW038 SCT045 14/07 Q1026 NOSIG=
33D00 43.21.63N 005.51.13WIN73BI 35.962km 249°WSW14:58:48Z33-D-00 Protección Civil REMER / Delegación del Gobierno en Asturias
EA1JAY 43.21.54N 005.51.34WIN73BI 36.299km 249°WSW15:00:30ZEA1JAY(3EA1JAY-2)
434.525MHz Nodo TETRA DMO(2EA1JAY-4)
EA1YR 43.22.09N 005.51.86WIN73BI 36.597km 251°WSW15:02:22ZMMDVM DVS 434.3500/434.3500 CC1
EA1L 43.20.38N 005.51.13WIN73BI 36.865km 246°WSW15:08:34ZWind 038°/002kn, Böen bis 003kn, Temp 15.00c, Regen 0.0mm, letzte 24h 0.5mm, seit 0h 0.5mm, Baro 1023.4h, Hum: 69%(3EA1L-13)
ea1l@ure.es V=13.6V,T=??.?C(2EA1L)
ED1ZAU 43.23.04N 005.52.75WIN73BJ 37.209km 254°WSW15:02:36ZRD625 438.5000/430.9000 CC1
EA1HJA 43.21.47N 005.52.09WIN73BI 37.282km 249°WSW15:12:02Z IN73FL WX3IN1+ 2.0 - V=13.2V,TX TEMP=26.4C(3EA1HJA-2)
IN73FL WX3IN1+ 2.0 - V=14.0V,TX TEMP=43.1C(2EA1HJA)
EA1HWX 43.19.29N 005.50.96WIN73BH 37.550km 243°WSW15:01:24ZDMO - UHF 439.7250/431.0000 CC11
EA1IMW 43.14.36N 005.46.93WIN73CF 38.411km 227°SW15:01:44ZGRUPO RADIO GALENA (GRG) 433.4500/433.4500 CC1
EA1AHA 43.32.72N 005.54.38WIN73BN 38.670km 282°WNW15:17:21ZMMDVM MMDVM HS Hat 432.0000/432.0000 CC1
Wind 000°/004kn, Böen bis 005kn, Temp 16.11c, Regen 0.0mm, letzte 24h 0.0mm, seit 0h 0.0mm, Baro 1026.9h, Hum: 54%(2EA1AHA-13)
EB1DGC 43.12.60N 005.45.59WIN73CF 39.512km 222°SW15:00:50ZMMDVM MMDVM HS Hat 433.4500/433.4500 CC1
ED1ZAY 43.29.47N 005.56.54WIN73AL 40.865km 273°W15:02:37ZRD625 438.3000/430.7000 CC1
EB1CAM 43.18.02N 005.53.08WIN73BH 41.178km 242°WSW15:17:18ZEB1CAM por ahi(3EB1CAM-9)
EA1JBL 43.12.28N 005.47.42WIN73CE 41.602km 224°SW15:02:01ZMMDVM DVMega 435.3000/435.3000 CC1
ED1ZAD 43.07.90N 005.38.52WIN73ED 41.758km 204°SSW14:51:06ZED1ZAD-3 APRS Digi/Igate(3ED1ZAD-3)
EA1HWA 43.12.00N 005.47.40WIN73CE 41.967km 223°SW14:31:51ZMMDVM MMDVM HS Hat 433.4500/433.4500 CC1
EA1RCG 43.09.45N 005.49.78WIN73CD 47.621km 222°SW15:01:27ZGRUPO RADIO GALENA (GRG) 433.4500/433.4500 CC1

aprs.pl 5.0.011w DL3EL © 2006-2021 [1162937]